Time;durP1;ratioP1;P1;durP2;ratioP2;P2;SDS_P1;SDS_P2;PMS_P1;PMS_P2;Temp;Humidity;BMP_temperature;BMP_pressure;BME280_temperature;BME280_humidity;BME280_pressure;Samples;Min_cycle;Max_cycle;Signal;HPM_P1;HPM_P2
2023/07/17 00:00:15;;;;;;;26.35;10.52;;;28.00;84.20;;;;;;5007778;28;20540;-77
2023/07/17 00:03:19;;;;;;;26.83;10.60;;;28.00;84.20;;;;;;5007003;28;20045;-77
2023/07/17 00:06:24;;;;;;;23.00;10.88;;;28.00;84.00;;;;;;5007596;28;20045;-77
2023/07/17 00:09:28;;;;;;;28.63;11.70;;;28.00;84.30;;;;;;5007532;28;20041;-77
2023/07/17 00:12:32;;;;;;;30.17;11.15;;;28.10;84.00;;;;;;5009142;28;20049;-77
2023/07/17 00:15:35;;;;;;;22.48;10.07;;;28.10;83.80;;;;;;5010833;28;20045;-77
2023/07/17 00:18:39;;;;;;;23.08;10.27;;;28.00;84.70;;;;;;5010802;28;20053;-77
2023/07/17 00:21:43;;;;;;;25.95;10.93;;;28.00;84.70;;;;;;5010949;28;20512;-77
2023/07/17 00:24:48;;;;;;;27.58;11.45;;;27.90;84.60;;;;;;5010448;28;20045;-77
2023/07/17 00:27:52;;;;;;;24.45;10.73;;;27.80;84.90;;;;;;5010720;28;20049;-77
2023/07/17 00:30:55;;;;;;;30.58;10.38;;;27.80;85.20;;;;;;5010663;28;20053;-77
2023/07/17 00:33:59;;;;;;;27.63;11.32;;;27.80;85.30;;;;;;5009418;28;20053;-77
2023/07/17 00:37:04;;;;;;;29.02;11.45;;;27.80;85.00;;;;;;5010711;28;20041;-77
2023/07/17 00:40:08;;;;;;;19.27;10.60;;;27.80;84.40;;;;;;5010286;28;20073;-77
2023/07/17 00:43:13;;;;;;;29.70;10.85;;;27.70;84.80;;;;;;5009750;28;20504;-77
2023/07/17 00:46:18;;;;;;;30.55;11.50;;;27.70;84.70;;;;;;5010450;28;20053;-78
2023/07/17 00:49:24;;;;;;;23.42;11.95;;;27.60;85.30;;;;;;5010442;28;20409;-78
2023/07/17 00:52:29;;;;;;;31.65;10.70;;;27.50;85.70;;;;;;5010545;28;20664;-78
2023/07/17 00:55:35;;;;;;;28.30;10.75;;;27.40;85.80;;;;;;5009983;28;20037;-78
2023/07/17 00:58:41;;;;;;;28.17;10.38;;;27.30;85.40;;;;;;5009918;28;20049;-77
2023/07/17 01:01:46;;;;;;;19.08;9.95;;;27.20;84.90;;;;;;5010581;28;20049;-77
2023/07/17 01:04:51;;;;;;;28.98;9.85;;;27.30;84.60;;;;;;5009362;28;20037;-78
2023/07/17 01:07:57;;;;;;;30.25;9.65;;;27.40;83.80;;;;;;5009589;28;20044;-78
2023/07/17 01:11:02;;;;;;;21.80;9.07;;;27.30;83.90;;;;;;5009653;28;20049;-77
2023/07/17 01:14:15;;;;;;;22.65;10.32;;;27.30;83.70;;;;;;5010377;28;20120;-78
2023/07/17 01:17:19;;;;;;;18.75;9.30;;;27.20;83.90;;;;;;5009739;28;20048;-78
2023/07/17 01:20:23;;;;;;;16.05;9.38;;;27.20;82.50;;;;;;5010057;28;20056;-77
2023/07/17 01:23:27;;;;;;;22.10;9.40;;;27.30;82.90;;;;;;5008492;28;20385;-77
2023/07/17 01:26:31;;;;;;;15.88;9.43;;;27.40;83.30;;;;;;5009346;28;20044;-78
2023/07/17 01:29:34;;;;;;;24.88;9.90;;;27.40;83.80;;;;;;5010317;28;20037;-78
2023/07/17 01:32:38;;;;;;;23.95;9.43;;;27.40;84.00;;;;;;5009982;28;20056;-78
2023/07/17 01:35:43;;;;;;;28.00;9.52;;;27.30;84.10;;;;;;5009906;28;20033;-78
2023/07/17 01:38:47;;;;;;;21.52;9.88;;;27.20;84.60;;;;;;5009900;28;20512;-78
2023/07/17 01:41:50;;;;;;;23.33;10.73;;;27.10;84.80;;;;;;5008922;28;20049;-78
2023/07/17 01:44:55;;;;;;;23.13;9.93;;;27.10;84.80;;;;;;5009789;28;20037;-78
2023/07/17 01:47:59;;;;;;;25.95;10.50;;;27.10;84.50;;;;;;5009644;28;20053;-78
2023/07/17 01:51:03;;;;;;;17.20;9.85;;;27.20;84.50;;;;;;5009165;28;20398;-78
2023/07/17 01:54:06;;;;;;;28.08;9.65;;;27.10;84.10;;;;;;5009033;28;20045;-77
2023/07/17 01:57:10;;;;;;;21.00;9.15;;;27.00;84.20;;;;;;5009580;28;20049;-78
2023/07/17 02:00:14;;;;;;;22.52;10.35;;;27.00;84.20;;;;;;5008640;28;20061;-78
2023/07/17 02:03:18;;;;;;;22.88;10.07;;;26.90;84.40;;;;;;5008797;28;20406;-78
2023/07/17 02:06:22;;;;;;;27.75;9.88;;;26.80;84.20;;;;;;5008943;28;20045;-78
2023/07/17 02:09:26;;;;;;;21.45;9.73;;;26.80;83.70;;;;;;5008848;28;20040;-77
2023/07/17 02:12:30;;;;;;;23.38;9.88;;;26.70;84.10;;;;;;5009351;28;20493;-77
2023/07/17 02:15:34;;;;;;;22.85;9.82;;;26.60;84.50;;;;;;5009304;28;20045;-79
2023/07/17 02:18:38;;;;;;;24.00;9.65;;;26.60;85.50;;;;;;5008825;28;20045;-77
2023/07/17 02:21:43;;;;;;;18.30;9.20;;;26.60;84.50;;;;;;5008552;28;20052;-77
2023/07/17 02:24:47;;;;;;;26.38;9.02;;;26.50;84.20;;;;;;5009266;28;20045;-77
2023/07/17 02:27:51;;;;;;;18.38;8.63;;;26.50;84.10;;;;;;5009019;28;20520;-78
2023/07/17 02:30:55;;;;;;;15.18;8.07;;;26.50;83.50;;;;;;5008101;28;20158;-78
2023/07/17 02:33:59;;;;;;;18.95;8.68;;;26.60;82.40;;;;;;5008709;28;20057;-78
2023/07/17 02:37:10;;;;;;;22.27;8.15;;;26.60;82.50;;;;;;5008430;28;20064;-78
2023/07/17 02:40:16;;;;;;;17.15;9.00;;;26.60;82.70;;;;;;5007967;28;20057;-77
2023/07/17 02:43:21;;;;;;;20.73;9.13;;;26.60;82.60;;;;;;5008646;28;20049;-77
2023/07/17 02:46:25;;;;;;;19.88;8.98;;;26.70;82.70;;;;;;5008672;28;20045;-78
2023/07/17 02:49:29;;;;;;;15.10;8.55;;;26.70;83.00;;;;;;5008390;28;20041;-78
2023/07/17 02:52:36;;;;;;;23.25;10.13;;;26.60;83.30;;;;;;4996660;28;20069;-77
2023/07/17 02:55:40;;;;;;;20.13;9.57;;;26.40;84.10;;;;;;5008915;28;20041;-77
2023/07/17 02:58:48;;;;;;;19.13;8.70;;;26.30;84.60;;;;;;5008086;28;20524;-77
2023/07/17 03:01:52;;;;;;;23.80;8.85;;;26.20;85.00;;;;;;5008892;28;20044;-77
2023/07/17 03:04:56;;;;;;;16.33;8.25;;;26.10;84.30;;;;;;5008089;28;20500;-77
2023/07/17 03:08:00;;;;;;;20.15;9.85;;;26.00;84.60;;;;;;5008527;28;20068;-77
2023/07/17 03:11:05;;;;;;;16.88;8.27;;;26.00;85.10;;;;;;5008530;28;20045;-78
2023/07/17 03:14:10;;;;;;;17.80;8.88;;;26.10;85.10;;;;;;5008278;28;20037;-77
2023/07/17 03:17:14;;;;;;;15.13;8.63;;;26.10;84.90;;;;;;5007742;28;20053;-78
2023/07/17 03:20:18;;;;;;;18.52;9.18;;;26.20;84.80;;;;;;5008189;28;20508;-77
2023/07/17 03:23:22;;;;;;;19.45;10.10;;;26.20;84.80;;;;;;5007320;28;20041;-78
2023/07/17 03:26:26;;;;;;;24.20;9.35;;;26.20;85.20;;;;;;5008550;28;20045;-77
2023/07/17 03:29:31;;;;;;;18.48;8.45;;;26.20;85.30;;;;;;5007445;28;20591;-78
2023/07/17 03:32:35;;;;;;;16.27;8.93;;;26.10;85.10;;;;;;5007021;28;20049;-77
2023/07/17 03:35:39;;;;;;;21.63;8.40;;;26.00;85.50;;;;;;5007202;28;20041;-78
2023/07/17 03:38:42;;;;;;;20.40;9.18;;;26.10;85.50;;;;;;5006971;28;20049;-77
2023/07/17 03:41:46;;;;;;;20.40;9.05;;;26.00;85.40;;;;;;5007479;28;20409;-78
2023/07/17 03:44:51;;;;;;;23.77;8.43;;;26.00;85.50;;;;;;5007887;28;20037;-77
2023/07/17 03:47:55;;;;;;;24.08;8.40;;;26.00;85.80;;;;;;5009523;28;20052;-78
2023/07/17 03:50:59;;;;;;;21.27;8.93;;;25.90;85.50;;;;;;5010730;28;20049;-78
2023/07/17 03:54:03;;;;;;;20.15;9.18;;;25.80;85.20;;;;;;4999381;28;20045;-77
2023/07/17 03:57:07;;;;;;;19.38;8.10;;;25.80;85.50;;;;;;5010705;28;20049;-78
2023/07/17 04:00:15;;;;;;;23.05;8.43;;;25.70;85.50;;;;;;5010565;28;20057;-78
2023/07/17 04:03:19;;;;;;;21.75;8.10;;;25.70;84.50;;;;;;5011235;28;20064;-77
2023/07/17 04:06:26;;;;;;;22.58;7.55;;;25.80;84.70;;;;;;5010776;28;20049;-77
2023/07/17 04:09:30;;;;;;;33.00;8.45;;;25.80;84.50;;;;;;5010346;28;20041;-78
2023/07/17 04:12:34;;;;;;;22.33;7.55;;;25.90;84.30;;;;;;5011025;28;20056;-78
2023/07/17 04:15:38;;;;;;;27.27;8.32;;;26.00;83.70;;;;;;5010248;28;20041;-78
2023/07/17 04:18:46;;;;;;;21.38;7.70;;;26.10;84.20;;;;;;5010383;28;20053;-78
2023/07/17 04:21:50;;;;;;;18.15;8.35;;;26.20;83.90;;;;;;5010244;28;20061;-77
2023/07/17 04:24:54;;;;;;;54.47;9.57;;;26.30;82.90;;;;;;5011104;28;20049;-78
2023/07/17 04:27:58;;;;;;;87.20;12.70;;;26.30;83.40;;;;;;5010166;28;20397;-77
2023/07/17 04:31:03;;;;;;;22.77;8.82;;;26.40;82.20;;;;;;5009909;28;20045;-78
2023/07/17 04:34:07;;;;;;;25.00;8.80;;;26.50;82.30;;;;;;5009597;28;20413;-77
2023/07/17 04:37:11;;;;;;;21.40;8.23;;;26.50;82.60;;;;;;5009821;28;20049;-77
2023/07/17 04:40:15;;;;;;;19.15;8.13;;;26.50;82.50;;;;;;5057372;28;20433;-78
2023/07/17 04:43:22;;;;;;;23.45;9.27;;;26.50;82.00;;;;;;5009514;28;20418;-77
2023/07/17 04:46:27;;;;;;;20.13;9.68;;;26.50;82.70;;;;;;5009772;28;20053;-77
2023/07/17 04:49:31;;;;;;;31.85;10.73;;;26.50;82.80;;;;;;5010109;28;20048;-77
2023/07/17 04:52:35;;;;;;;26.33;11.32;;;26.70;82.50;;;;;;5009500;28;20056;-78
2023/07/17 04:55:39;;;;;;;26.38;11.75;;;27.00;81.80;;;;;;5010162;28;20508;-77
2023/07/17 04:58:43;;;;;;;34.88;11.80;;;27.30;81.00;;;;;;5008380;28;20539;-78
2023/07/17 05:01:47;;;;;;;40.42;11.60;;;27.70;80.00;;;;;;5009206;28;20048;-78
2023/07/17 05:04:51;;;;;;;25.27;10.52;;;27.90;79.20;;;;;;5009664;28;20545;-77
2023/07/17 05:07:55;;;;;;;45.83;10.95;;;28.00;78.60;;;;;;5009695;28;20049;-77
2023/07/17 05:11:04;;;;;;;42.22;11.02;;;27.90;79.20;;;;;;5009343;28;20037;-78
2023/07/17 05:14:15;;;;;;;27.35;8.80;;;27.90;79.70;;;;;;5009161;28;20052;-77
2023/07/17 05:17:20;;;;;;;30.65;7.88;;;28.00;77.80;;;;;;5009569;28;20041;-75
2023/07/17 05:20:24;;;;;;;24.80;8.38;;;28.20;77.60;;;;;;5009230;28;20066;-75
2023/07/17 05:23:30;;;;;;;38.92;8.23;;;28.20;78.10;;;;;;5009248;28;20045;-73
2023/07/17 05:26:35;;;;;;;29.88;8.95;;;28.20;78.70;;;;;;5009172;28;20060;-74
2023/07/17 05:29:38;;;;;;;26.58;8.25;;;28.20;78.90;;;;;;5009279;28;20056;-81
2023/07/17 05:32:42;;;;;;;27.48;8.65;;;28.50;79.00;;;;;;5010046;28;20052;-83
2023/07/17 05:35:47;;;;;;;22.77;9.18;;;28.80;78.40;;;;;;5010308;28;20389;-82
2023/07/17 05:38:51;;;;;;;18.70;9.02;;;29.00;78.30;;;;;;5008865;28;20061;-75
2023/07/17 05:41:55;;;;;;;26.98;8.85;;;29.20;78.00;;;;;;5008753;28;20530;-75
2023/07/17 05:44:59;;;;;;;28.77;8.73;;;29.30;77.20;;;;;;5009123;28;20604;-75
2023/07/17 05:48:04;;;;;;;32.15;8.70;;;29.50;77.60;;;;;;5008936;28;20044;-76
2023/07/17 05:51:08;;;;;;;27.50;9.63;;;29.70;76.50;;;;;;5009829;28;20049;-76
2023/07/17 05:54:12;;;;;;;32.33;9.07;;;30.10;76.20;;;;;;5008783;28;20394;-76
2023/07/17 05:57:16;;;;;;;25.10;9.23;;;30.40;74.80;;;;;;5008986;28;20053;-76
2023/07/17 06:00:21;;;;;;;32.60;10.63;;;30.70;73.70;;;;;;5008628;28;20052;-74
2023/07/17 06:03:25;;;;;;;28.30;10.18;;;30.90;73.30;;;;;;5009451;28;20065;-74
2023/07/17 06:06:29;;;;;;;29.33;11.05;;;31.20;72.90;;;;;;5009225;28;20045;-74
2023/07/17 06:09:35;;;;;;;35.75;10.10;;;31.20;72.70;;;;;;5009039;28;20052;-74
2023/07/17 06:12:39;;;;;;;41.63;10.32;;;31.40;72.60;;;;;;5009122;28;20135;-76
2023/07/17 06:15:44;;;;;;;28.05;9.98;;;31.50;72.90;;;;;;5009085;28;20512;-74
2023/07/17 06:18:48;;;;;;;23.30;8.63;;;31.60;72.50;;;;;;5008747;28;20060;-81
2023/07/17 06:21:52;;;;;;;34.13;8.80;;;31.80;72.10;;;;;;5009190;28;20057;-76
2023/07/17 06:24:56;;;;;;;24.80;8.30;;;31.80;72.00;;;;;;5009355;28;20045;-76
2023/07/17 06:27:59;;;;;;;22.13;7.65;;;31.80;70.40;;;;;;5009149;28;20052;-80
2023/07/17 06:31:04;;;;;;;28.88;8.63;;;31.80;69.80;;;;;;5009079;28;20402;-76
2023/07/17 06:34:07;;;;;;;24.92;8.80;;;32.00;70.20;;;;;;5009032;28;20056;-77
2023/07/17 06:37:12;;;;;;;27.55;8.88;;;32.20;69.70;;;;;;5009134;28;20052;-78
2023/07/17 06:40:16;;;;;;;26.92;8.63;;;32.40;69.90;;;;;;5008735;28;20053;-78
2023/07/17 06:43:19;;;;;;;26.40;8.10;;;32.50;68.90;;;;;;5008685;28;20044;-78
2023/07/17 06:46:23;;;;;;;21.88;7.28;;;32.70;68.40;;;;;;5008770;28;20519;-77
2023/07/17 06:49:27;;;;;;;20.35;7.25;;;32.90;67.50;;;;;;5008723;28;20049;-77
2023/07/17 06:52:31;;;;;;;21.27;6.15;;;33.10;65.30;;;;;;5008712;28;20053;-81
2023/07/17 06:55:35;;;;;;;22.98;6.75;;;33.30;64.50;;;;;;5009906;28;20048;-79
2023/07/17 06:58:39;;;;;;;19.80;6.90;;;33.40;64.00;;;;;;5008373;28;20081;-80
2023/07/17 07:01:44;;;;;;;21.50;6.68;;;33.40;63.80;;;;;;5006895;28;20057;-74
2023/07/17 07:04:48;;;;;;;17.85;5.80;;;33.50;63.20;;;;;;5006794;28;20206;-76
2023/07/17 07:07:52;;;;;;;21.25;6.90;;;33.60;62.70;;;;;;5008648;28;20041;-78
2023/07/17 07:11:00;;;;;;;22.67;6.30;;;33.80;63.20;;;;;;5006558;28;20045;-79
2023/07/17 07:14:03;;;;;;;23.27;6.43;;;33.90;63.30;;;;;;5008543;28;20052;-73
2023/07/17 07:17:08;;;;;;;32.63;7.18;;;35.30;61.30;;;;;;5008472;28;20136;-78
2023/07/17 07:20:12;;;;;;;22.00;6.40;;;36.50;59.80;;;;;;5008408;28;20053;-76
2023/07/17 07:23:16;;;;;;;14.38;6.20;;;37.20;58.70;;;;;;5011598;28;20041;-72
2023/07/17 07:26:20;;;;;;;16.33;5.47;;;37.90;57.70;;;;;;5011925;28;20045;-74
2023/07/17 07:29:25;;;;;;;28.10;6.45;;;38.00;57.10;;;;;;5012152;28;20068;-71
2023/07/17 07:32:28;;;;;;;22.67;5.72;;;38.10;58.20;;;;;;5011611;28;20432;-71
2023/07/17 07:35:33;;;;;;;17.63;5.35;;;38.10;57.40;;;;;;5011572;28;20500;-82
2023/07/17 07:38:37;;;;;;;18.45;5.32;;;37.80;58.10;;;;;;5010998;28;20065;-84
2023/07/17 07:41:41;;;;;;;19.88;6.30;;;37.80;57.60;;;;;;5011504;28;20050;-75
2023/07/17 07:44:44;;;;;;;19.02;5.93;;;37.80;58.40;;;;;;5011591;28;20108;-73
2023/07/17 07:47:48;;;;;;;19.67;5.50;;;38.00;58.50;;;;;;5011746;28;20048;-75
2023/07/17 07:50:52;;;;;;;19.75;6.40;;;38.10;58.60;;;;;;5011896;28;20045;-76
2023/07/17 07:53:57;;;;;;;19.50;5.88;;;38.50;58.40;;;;;;5010501;28;20049;-80
2023/07/17 07:57:00;;;;;;;25.02;6.15;;;38.50;58.10;;;;;;5011533;28;20389;-79
2023/07/17 08:00:05;;;;;;;19.58;6.53;;;39.00;58.20;;;;;;4999237;28;20044;-77
2023/07/17 08:03:17;;;;;;;15.13;6.25;;;39.20;57.60;;;;;;5011166;28;20045;-72
2023/07/17 08:06:21;;;;;;;20.08;5.63;;;39.30;57.70;;;;;;5011033;28;20037;-72
2023/07/17 08:09:25;;;;;;;18.58;5.70;;;39.10;57.60;;;;;;5010840;28;20049;-74
2023/07/17 08:12:30;;;;;;;11.35;4.80;;;39.10;58.20;;;;;;5010827;28;20053;-74
2023/07/17 08:15:34;;;;;;;14.27;5.20;;;38.90;56.10;;;;;;5010836;28;20053;-75
2023/07/17 08:18:37;;;;;;;26.00;5.90;;;38.30;57.10;;;;;;5010026;28;20045;-73
2023/07/17 08:21:42;;;;;;;17.10;5.93;;;37.80;58.50;;;;;;5010791;28;20061;-73
2023/07/17 08:24:45;;;;;;;20.65;6.05;;;37.60;59.30;;;;;;5009845;28;20045;-72
2023/07/17 08:27:51;;;;;;;26.55;6.50;;;37.60;59.00;;;;;;5010986;28;20052;-70
2023/07/17 08:30:55;;;;;;;18.33;5.75;;;37.30;58.60;;;;;;5010907;28;20053;-85
2023/07/17 08:34:00;;;;;;;48.33;11.93;;;37.00;59.30;;;;;;5010280;28;20057;-74
2023/07/17 08:37:04;;;;;;;22.15;6.28;;;36.80;60.00;;;;;;5010776;28;20096;-78
2023/07/17 08:40:10;;;;;;;20.95;5.97;;;36.80;60.70;;;;;;5010822;28;20049;-76
2023/07/17 08:43:15;;;;;;;13.57;5.50;;;36.80;60.50;;;;;;5010681;28;20049;-73
2023/07/17 08:46:19;;;;;;;23.65;5.50;;;36.90;60.90;;;;;;5010781;28;20045;-72
2023/07/17 08:49:24;;;;;;;21.30;5.55;;;36.90;60.10;;;;;;5010581;28;20085;-75
2023/07/17 08:52:30;;;;;;;13.95;6.22;;;37.00;60.10;;;;;;5010240;28;20111;-75
2023/07/17 08:55:35;;;;;;;11.90;6.05;;;37.10;60.10;;;;;;5010288;28;20064;-76
2023/07/17 08:58:42;;;;;;;19.08;5.65;;;37.20;60.30;;;;;;5009506;28;20057;-82
2023/07/17 09:01:49;;;;;;;15.15;6.05;;;37.30;60.40;;;;;;5009802;28;20508;-71
2023/07/17 09:04:53;;;;;;;25.42;6.95;;;37.30;60.40;;;;;;5010089;28;20045;-71
2023/07/17 09:07:57;;;;;;;17.13;6.78;;;37.40;60.40;;;;;;5009862;28;20053;-71
2023/07/17 09:11:06;;;;;;;19.20;5.72;;;37.50;60.40;;;;;;5009950;28;20107;-77
2023/07/17 09:14:10;;;;;;;14.55;5.78;;;37.50;60.50;;;;;;5010263;28;20056;-75
2023/07/17 09:17:14;;;;;;;16.55;7.25;;;37.60;61.00;;;;;;5010055;28;20049;-72
2023/07/17 09:20:19;;;;;;;25.35;8.90;;;37.60;61.30;;;;;;5009913;28;20041;-73
2023/07/17 09:23:23;;;;;;;26.27;6.95;;;37.60;61.40;;;;;;5009658;28;20049;-78
2023/07/17 09:26:28;;;;;;;22.13;6.88;;;37.70;62.20;;;;;;5009869;28;20049;-73
2023/07/17 09:29:33;;;;;;;24.60;6.88;;;38.30;60.90;;;;;;5007750;28;20049;-78
2023/07/17 09:32:37;;;;;;;22.85;6.80;;;39.70;59.70;;;;;;5008854;28;20053;-81
2023/07/17 09:35:55;;;;;;;16.63;6.50;;;40.70;58.60;;;;;;5009455;28;20405;-76
2023/07/17 09:39:01;;;;;;;208.32;20.20;;;40.90;58.30;;;;;;5009839;28;20061;-74
2023/07/17 09:42:22;;;;;;;24.40;6.78;;;41.00;57.90;;;;;;5009353;28;20057;-73
2023/07/17 09:45:27;;;;;;;18.02;6.03;;;40.60;58.40;;;;;;5009162;28;20053;-73
2023/07/17 09:48:31;;;;;;;20.15;6.45;;;40.90;58.50;;;;;;5009609;28;20045;-74
2023/07/17 09:51:36;;;;;;;26.58;7.13;;;41.30;58.50;;;;;;5009201;28;20041;-74
2023/07/17 09:54:43;;;;;;;15.77;6.15;;;41.40;57.60;;;;;;5009512;28;20052;-72
2023/07/17 09:57:50;;;;;;;21.30;7.35;;;41.60;57.50;;;;;;5009731;28;20061;-73
2023/07/17 10:00:55;;;;;;;24.40;7.57;;;41.50;56.90;;;;;;5009251;28;20187;-69
2023/07/17 10:04:05;;;;;;;23.35;6.78;;;41.00;57.80;;;;;;5009347;28;20049;-69
2023/07/17 10:07:12;;;;;;;16.90;6.53;;;40.50;58.10;;;;;;5009063;28;20056;-69
2023/07/17 10:10:16;;;;;;;17.63;7.25;;;40.00;59.40;;;;;;5008646;28;20053;-68
2023/07/17 10:13:21;;;;;;;23.38;6.68;;;39.70;59.40;;;;;;5009004;28;20053;-69
2023/07/17 10:16:26;;;;;;;17.98;6.50;;;39.40;60.00;;;;;;5009335;28;20067;-70
2023/07/17 10:19:44;;;;;;;12.90;6.00;;;39.20;59.00;;;;;;5009049;28;20094;-69
2023/07/17 10:22:49;;;;;;;20.38;6.78;;;38.90;59.80;;;;;;5009098;28;20049;-69
2023/07/17 10:26:07;;;;;;;23.02;6.72;;;38.90;60.20;;;;;;5008958;28;20052;-69
2023/07/17 10:29:12;;;;;;;27.75;6.75;;;38.80;60.10;;;;;;5009200;28;20500;-69
2023/07/17 10:32:16;;;;;;;24.48;7.10;;;38.70;60.90;;;;;;5008308;28;20052;-69
2023/07/17 10:35:20;;;;;;;20.77;7.00;;;38.70;61.80;;;;;;5008809;28;20065;-69
2023/07/17 10:38:36;;;;;;;14.48;6.63;;;38.60;61.80;;;;;;4996852;28;20049;-69
2023/07/17 10:41:41;;;;;;;14.85;6.68;;;38.70;62.20;;;;;;5008659;28;20061;-69
2023/07/17 10:44:45;;;;;;;11.38;5.97;;;38.70;62.10;;;;;;5008706;28;20053;-70
2023/07/17 10:47:50;;;;;;;16.75;6.78;;;38.70;61.60;;;;;;5008908;28;20049;-69
2023/07/17 10:50:57;;;;;;;18.23;7.47;;;38.70;61.80;;;;;;5008550;28;20496;-70
2023/07/17 10:54:00;;;;;;;18.27;6.15;;;38.70;60.60;;;;;;5007832;28;20048;-69
2023/07/17 10:57:05;;;;;;;14.45;5.82;;;38.60;60.70;;;;;;5007462;28;20045;-70
2023/07/17 11:00:10;;;;;;;9.90;5.95;;;38.60;59.90;;;;;;5008107;28;20049;-70
2023/07/17 11:03:14;;;;;;;24.63;6.95;;;38.50;59.70;;;;;;5008663;28;20057;-70
2023/07/17 11:06:19;;;;;;;17.67;6.15;;;38.50;59.10;;;;;;5008628;28;20068;-69
2023/07/17 11:09:27;;;;;;;15.55;6.25;;;38.40;58.30;;;;;;5008566;28;20053;-70
2023/07/17 11:12:31;;;;;;;19.00;6.57;;;38.30;59.10;;;;;;5008325;28;20045;-70
2023/07/17 11:15:36;;;;;;;12.32;5.90;;;38.20;58.80;;;;;;5008291;28;20056;-70
2023/07/17 11:18:47;;;;;;;15.77;6.95;;;38.20;59.30;;;;;;5008060;28;20056;-70
2023/07/17 11:21:51;;;;;;;14.98;6.40;;;38.20;59.80;;;;;;5007960;28;20068;-70
2023/07/17 11:24:55;;;;;;;17.92;7.60;;;38.10;59.60;;;;;;5008303;28;20049;-71
2023/07/17 11:28:01;;;;;;;13.82;7.03;;;38.10;59.50;;;;;;5007896;28;20049;-69
2023/07/17 11:31:16;;;;;;;16.20;6.75;;;38.10;59.20;;;;;;5008294;28;20041;-71
2023/07/17 11:34:20;;;;;;;17.88;7.47;;;38.10;60.10;;;;;;5006999;28;20049;-70
2023/07/17 11:37:34;;;;;;;19.23;7.25;;;38.00;60.60;;;;;;5008079;28;20053;-70
2023/07/17 11:40:58;;;;;;;20.60;8.13;;;38.10;61.10;;;;;;5007756;28;20057;-69
2023/07/17 11:44:06;;;;;;;15.77;7.00;;;38.10;60.80;;;;;;5008144;28;20061;-69
2023/07/17 11:47:12;;;;;;;18.73;7.68;;;37.90;60.90;;;;;;5007295;28;20041;-69
2023/07/17 11:50:25;;;;;;;16.17;7.80;;;37.80;60.70;;;;;;5008036;28;20417;-68
2023/07/17 11:53:29;;;;;;;13.75;7.20;;;37.80;61.70;;;;;;5007806;28;20390;-69
2023/07/17 11:56:40;;;;;;;19.58;8.40;;;37.80;63.00;;;;;;5007976;28;20057;-70
2023/07/17 11:59:45;;;;;;;17.67;7.93;;;37.80;63.00;;;;;;5007539;28;20045;-70
2023/07/17 12:02:49;;;;;;;15.23;7.55;;;37.80;62.90;;;;;;5007162;28;20053;-72
2023/07/17 12:05:53;;;;;;;20.10;7.72;;;37.90;62.30;;;;;;5007890;28;20049;-73
2023/07/17 12:08:57;;;;;;;20.02;7.93;;;37.80;62.40;;;;;;5010152;28;20040;-74
2023/07/17 12:12:01;;;;;;;20.35;8.75;;;37.90;62.70;;;;;;5010645;28;20045;-71
2023/07/17 12:15:06;;;;;;;29.17;9.07;;;37.90;62.70;;;;;;5010554;28;20057;-71
2023/07/17 12:18:10;;;;;;;31.15;8.23;;;39.50;61.10;;;;;;5008216;28;20045;-70
2023/07/17 12:21:14;;;;;;;27.70;10.00;;;41.00;59.40;;;;;;5010374;28;20053;-71
2023/07/17 12:24:18;;;;;;;24.35;9.48;;;41.70;59.30;;;;;;5010486;28;20057;-72
2023/07/17 12:27:22;;;;;;;25.20;9.32;;;42.10;59.10;;;;;;5010326;28;20049;-70
2023/07/17 12:30:26;;;;;;;26.40;8.82;;;42.10;58.50;;;;;;5010881;28;20048;-70
2023/07/17 12:33:30;;;;;;;23.08;8.88;;;42.00;58.80;;;;;;5009628;28;20676;-70
2023/07/17 12:36:34;;;;;;;22.70;8.73;;;42.00;58.80;;;;;;5010515;28;20037;-69
2023/07/17 12:39:38;;;;;;;24.15;7.95;;;41.70;58.70;;;;;;5010574;28;20057;-74
2023/07/17 12:42:42;;;;;;;21.15;8.43;;;41.50;59.10;;;;;;5010582;28;20056;-75
2023/07/17 12:45:46;;;;;;;24.02;9.75;;;41.80;59.20;;;;;;5010592;28;20041;-69
2023/07/17 12:48:50;;;;;;;24.00;8.65;;;42.20;59.10;;;;;;5010583;28;20049;-69
2023/07/17 12:51:54;;;;;;;28.55;10.15;;;42.30;57.80;;;;;;5010411;28;20045;-72
2023/07/17 12:54:58;;;;;;;26.02;10.27;;;42.50;58.40;;;;;;5010333;28;20049;-74
2023/07/17 12:58:02;;;;;;;27.50;9.25;;;42.60;58.50;;;;;;5010507;28;20409;-73
2023/07/17 13:01:06;;;;;;;30.77;9.52;;;42.80;58.90;;;;;;5010135;28;20053;-74
2023/07/17 13:04:10;;;;;;;19.50;8.90;;;42.80;59.30;;;;;;5010115;28;20041;-76
2023/07/17 13:07:14;;;;;;;24.40;9.80;;;42.60;59.70;;;;;;5010354;28;20037;-76
2023/07/17 13:10:19;;;;;;;21.80;8.52;;;42.70;60.10;;;;;;5010363;28;20056;-70
2023/07/17 13:13:23;;;;;;;25.40;9.18;;;42.40;60.10;;;;;;5010071;28;20045;-73
2023/07/17 13:16:27;;;;;;;24.05;8.43;;;42.40;59.80;;;;;;5010130;28;20053;-78
2023/07/17 13:19:31;;;;;;;21.70;8.73;;;42.30;59.70;;;;;;5009315;28;20046;-74
2023/07/17 13:22:35;;;;;;;26.30;9.35;;;42.30;59.60;;;;;;5009046;28;20049;-72
2023/07/17 13:25:39;;;;;;;24.35;8.15;;;42.10;60.20;;;;;;5009783;28;20117;-77
2023/07/17 13:28:43;;;;;;;22.05;8.18;;;41.60;60.10;;;;;;5009667;28;20453;-75
2023/07/17 13:31:47;;;;;;;78.90;12.13;;;41.50;60.30;;;;;;5009456;28;20041;-75
2023/07/17 13:34:51;;;;;;;23.38;8.23;;;41.60;60.20;;;;;;5009912;28;20069;-76
2023/07/17 13:37:55;;;;;;;25.63;8.93;;;41.50;60.60;;;;;;5010394;28;20045;-83
2023/07/17 13:40:59;;;;;;;68.57;11.02;;;41.50;60.80;;;;;;5009868;28;20103;-75
2023/07/17 13:44:03;;;;;;;26.98;8.50;;;41.80;60.70;;;;;;5009910;28;20406;-77
2023/07/17 13:47:07;;;;;;;51.92;9.63;;;41.80;59.30;;;;;;5009610;28;20068;-72
2023/07/17 13:50:11;;;;;;;18.00;7.88;;;41.80;59.10;;;;;;5007898;28;20042;-71
2023/07/17 13:53:16;;;;;;;20.17;7.80;;;41.20;60.30;;;;;;5007541;28;20049;-71
2023/07/17 13:56:20;;;;;;;20.30;7.95;;;40.60;61.10;;;;;;5007488;28;20045;-71
2023/07/17 13:59:25;;;;;;;55.75;10.80;;;40.20;61.70;;;;;;5007791;28;20044;-71
2023/07/17 14:02:29;;;;;;;18.13;7.78;;;39.90;62.10;;;;;;5008700;28;20053;-71
2023/07/17 14:05:33;;;;;;;35.65;9.20;;;39.60;62.80;;;;;;5009263;28;20183;-71
2023/07/17 14:08:37;;;;;;;25.42;8.35;;;39.40;61.90;;;;;;5009824;28;20065;-72
2023/07/17 14:11:43;;;;;;;26.20;9.45;;;39.30;61.80;;;;;;5009333;28;20048;-72
2023/07/17 14:14:47;;;;;;;46.63;10.65;;;39.10;61.80;;;;;;5008985;28;20508;-72
2023/07/17 14:17:51;;;;;;;67.40;11.43;;;39.00;62.30;;;;;;5009288;28;20041;-73
2023/07/17 14:20:55;;;;;;;21.60;7.70;;;39.10;63.30;;;;;;5008779;28;20049;-73
2023/07/17 14:23:59;;;;;;;25.15;7.88;;;40.20;61.70;;;;;;5009006;28;20060;-74
2023/07/17 14:27:04;;;;;;;35.67;8.82;;;41.40;59.80;;;;;;5008251;28;20099;-74
2023/07/17 14:30:10;;;;;;;83.00;12.40;;;41.80;58.10;;;;;;5008366;28;20069;-77
2023/07/17 14:33:14;;;;;;;41.22;9.48;;;41.60;59.20;;;;;;5007938;28;20053;-77
2023/07/17 14:36:18;;;;;;;107.25;14.30;;;41.50;59.50;;;;;;5008831;28;20049;-77
2023/07/17 14:39:22;;;;;;;20.33;7.82;;;41.70;59.60;;;;;;5008853;28;20041;-77
2023/07/17 14:42:26;;;;;;;22.85;8.32;;;41.50;59.30;;;;;;5008284;28;20065;-76
2023/07/17 14:45:30;;;;;;;25.30;8.23;;;41.60;58.90;;;;;;5008269;28;20385;-73
2023/07/17 14:48:34;;;;;;;20.80;7.80;;;41.40;58.10;;;;;;5008496;28;20045;-75
2023/07/17 14:51:39;;;;;;;39.97;11.02;;;41.40;58.60;;;;;;5008482;28;20045;-74
2023/07/17 14:54:42;;;;;;;214.07;26.80;;;41.80;57.50;;;;;;5008683;28;20045;-74
2023/07/17 14:57:46;;;;;;;30.80;8.98;;;42.00;57.30;;;;;;5008775;28;20048;-73
2023/07/17 15:00:51;;;;;;;29.30;9.00;;;41.80;56.70;;;;;;5008648;28;20401;-80
2023/07/17 15:03:55;;;;;;;73.93;11.88;;;41.70;57.00;;;;;;5008677;28;20045;-78
2023/07/17 15:06:59;;;;;;;129.40;16.25;;;42.10;57.30;;;;;;5007706;28;20061;-73
2023/07/17 15:10:03;;;;;;;42.53;9.98;;;42.20;57.30;;;;;;5008499;28;20065;-73
2023/07/17 15:13:08;;;;;;;28.95;8.95;;;42.20;57.30;;;;;;5008517;28;20116;-75
2023/07/17 15:16:12;;;;;;;28.35;8.23;;;42.10;56.70;;;;;;5008635;28;20044;-74
2023/07/17 15:19:16;;;;;;;61.90;11.93;;;41.80;56.20;;;;;;5008406;28;20041;-76
2023/07/17 15:22:20;;;;;;;21.20;9.02;;;41.90;56.70;;;;;;5007365;28;20053;-75
2023/07/17 15:25:24;;;;;;;36.03;10.23;;;42.10;56.80;;;;;;5008103;28;20397;-76
2023/07/17 15:28:27;;;;;;;24.75;9.38;;;42.10;56.70;;;;;;5008314;28;20048;-73
2023/07/17 15:31:31;;;;;;;46.83;10.18;;;41.70;56.50;;;;;;5008308;28;20211;-75
2023/07/17 15:34:35;;;;;;;21.27;8.93;;;41.70;56.90;;;;;;5007703;28;20127;-72
2023/07/17 15:37:39;;;;;;;29.50;9.25;;;41.70;56.40;;;;;;5007870;28;20049;-72
2023/07/17 15:40:43;;;;;;;30.70;8.75;;;41.80;56.30;;;;;;5007306;28;20207;-74
2023/07/17 15:43:47;;;;;;;32.60;10.10;;;41.70;56.80;;;;;;5010359;28;20061;-74
2023/07/17 15:46:52;;;;;;;46.40;10.65;;;41.60;55.90;;;;;;5011733;28;20045;-73